sensor_id;sensor_type;location;lat;lon;timestamp;P1;durP1;ratioP1;P2;durP2;ratioP2
11604;SDS011;5858;43.076;25.626;2023-09-19T00:01:33;8.30;;;5.07;;
11604;SDS011;5858;43.076;25.626;2023-09-19T00:04:01;17.90;;;5.20;;
11604;SDS011;5858;43.076;25.626;2023-09-19T00:06:29;6.32;;;4.43;;
11604;SDS011;5858;43.076;25.626;2023-09-19T00:08:57;8.18;;;4.30;;
11604;SDS011;5858;43.076;25.626;2023-09-19T00:11:25;8.48;;;4.25;;
11604;SDS011;5858;43.076;25.626;2023-09-19T00:13:52;6.03;;;4.30;;
11604;SDS011;5858;43.076;25.626;2023-09-19T00:16:19;10.43;;;4.50;;
11604;SDS011;5858;43.076;25.626;2023-09-19T00:18:47;7.20;;;4.65;;
11604;SDS011;5858;43.076;25.626;2023-09-19T00:21:16;5.55;;;4.60;;
11604;SDS011;5858;43.076;25.626;2023-09-19T00:23:44;6.50;;;4.43;;
11604;SDS011;5858;43.076;25.626;2023-09-19T00:26:11;5.15;;;4.65;;
11604;SDS011;5858;43.076;25.626;2023-09-19T00:28:38;7.60;;;4.47;;
11604;SDS011;5858;43.076;25.626;2023-09-19T00:31:07;5.03;;;4.53;;
11604;SDS011;5858;43.076;25.626;2023-09-19T00:33:34;7.15;;;4.07;;
11604;SDS011;5858;43.076;25.626;2023-09-19T00:36:01;10.38;;;4.35;;
11604;SDS011;5858;43.076;25.626;2023-09-19T00:38:32;10.27;;;4.20;;
11604;SDS011;5858;43.076;25.626;2023-09-19T00:40:58;4.90;;;4.40;;
11604;SDS011;5858;43.076;25.626;2023-09-19T00:43:26;6.57;;;4.60;;
11604;SDS011;5858;43.076;25.626;2023-09-19T00:45:55;8.02;;;4.50;;
11604;SDS011;5858;43.076;25.626;2023-09-19T00:48:22;7.15;;;4.38;;
11604;SDS011;5858;43.076;25.626;2023-09-19T00:50:53;4.73;;;4.13;;
11604;SDS011;5858;43.076;25.626;2023-09-19T00:53:21;6.70;;;3.83;;
11604;SDS011;5858;43.076;25.626;2023-09-19T00:55:52;6.23;;;3.83;;
11604;SDS011;5858;43.076;25.626;2023-09-19T00:58:19;8.60;;;3.75;;
11604;SDS011;5858;43.076;25.626;2023-09-19T01:00:46;9.27;;;4.03;;
11604;SDS011;5858;43.076;25.626;2023-09-19T01:03:14;5.17;;;3.97;;
11604;SDS011;5858;43.076;25.626;2023-09-19T01:05:41;9.57;;;5.07;;
11604;SDS011;5858;43.076;25.626;2023-09-19T01:08:09;10.18;;;4.20;;
11604;SDS011;5858;43.076;25.626;2023-09-19T01:10:36;13.53;;;4.30;;
11604;SDS011;5858;43.076;25.626;2023-09-19T01:13:20;4.57;;;4.10;;
11604;SDS011;5858;43.076;25.626;2023-09-19T01:16:05;4.57;;;4.10;;
11604;SDS011;5858;43.076;25.626;2023-09-19T01:18:43;5.57;;;4.53;;
11604;SDS011;5858;43.076;25.626;2023-09-19T01:21:20;8.73;;;4.30;;
11604;SDS011;5858;43.076;25.626;2023-09-19T01:24:08;10.13;;;4.68;;
11604;SDS011;5858;43.076;25.626;2023-09-19T01:26:50;8.90;;;4.32;;
11604;SDS011;5858;43.076;25.626;2023-09-19T01:29:41;6.03;;;4.10;;
11604;SDS011;5858;43.076;25.626;2023-09-19T01:32:13;7.47;;;4.38;;
11604;SDS011;5858;43.076;25.626;2023-09-19T01:34:46;5.53;;;4.50;;
11604;SDS011;5858;43.076;25.626;2023-09-19T01:37:15;6.70;;;4.00;;
11604;SDS011;5858;43.076;25.626;2023-09-19T01:39:45;7.28;;;4.57;;
11604;SDS011;5858;43.076;25.626;2023-09-19T01:42:18;6.20;;;3.80;;
11604;SDS011;5858;43.076;25.626;2023-09-19T01:44:57;6.68;;;4.38;;
11604;SDS011;5858;43.076;25.626;2023-09-19T01:47:32;8.32;;;4.57;;
11604;SDS011;5858;43.076;25.626;2023-09-19T01:50:04;10.37;;;4.37;;
11604;SDS011;5858;43.076;25.626;2023-09-19T01:52:45;6.00;;;4.00;;
11604;SDS011;5858;43.076;25.626;2023-09-19T01:55:15;5.00;;;3.73;;
11604;SDS011;5858;43.076;25.626;2023-09-19T01:57:48;6.45;;;4.25;;
11604;SDS011;5858;43.076;25.626;2023-09-19T02:00:20;5.73;;;4.03;;
11604;SDS011;5858;43.076;25.626;2023-09-19T02:02:50;6.93;;;4.20;;
11604;SDS011;5858;43.076;25.626;2023-09-19T02:05:24;5.67;;;4.70;;
11604;SDS011;5858;43.076;25.626;2023-09-19T02:07:52;7.90;;;4.50;;
11604;SDS011;5858;43.076;25.626;2023-09-19T02:10:20;7.13;;;4.23;;
11604;SDS011;5858;43.076;25.626;2023-09-19T02:12:48;11.70;;;5.10;;
11604;SDS011;5858;43.076;25.626;2023-09-19T02:15:15;8.20;;;4.30;;
11604;SDS011;5858;43.076;25.626;2023-09-19T02:17:44;9.50;;;4.50;;
11604;SDS011;5858;43.076;25.626;2023-09-19T02:20:12;6.10;;;4.63;;
11604;SDS011;5858;43.076;25.626;2023-09-19T02:22:40;7.77;;;4.50;;
11604;SDS011;5858;43.076;25.626;2023-09-19T02:25:09;9.13;;;4.70;;
11604;SDS011;5858;43.076;25.626;2023-09-19T02:27:36;9.67;;;5.07;;
11604;SDS011;5858;43.076;25.626;2023-09-19T02:30:05;11.57;;;4.73;;
11604;SDS011;5858;43.076;25.626;2023-09-19T02:32:33;6.20;;;4.50;;
11604;SDS011;5858;43.076;25.626;2023-09-19T02:35:04;9.53;;;4.37;;
11604;SDS011;5858;43.076;25.626;2023-09-19T02:37:35;5.40;;;4.50;;
11604;SDS011;5858;43.076;25.626;2023-09-19T02:40:02;7.17;;;4.30;;
11604;SDS011;5858;43.076;25.626;2023-09-19T02:42:43;8.40;;;4.53;;
11604;SDS011;5858;43.076;25.626;2023-09-19T02:45:14;7.60;;;4.80;;
11604;SDS011;5858;43.076;25.626;2023-09-19T02:47:42;6.50;;;4.97;;
11604;SDS011;5858;43.076;25.626;2023-09-19T02:50:09;6.23;;;4.67;;
11604;SDS011;5858;43.076;25.626;2023-09-19T02:52:38;9.43;;;4.67;;
11604;SDS011;5858;43.076;25.626;2023-09-19T02:55:05;5.77;;;4.10;;
11604;SDS011;5858;43.076;25.626;2023-09-19T02:57:34;8.33;;;4.37;;
11604;SDS011;5858;43.076;25.626;2023-09-19T03:00:06;5.87;;;4.27;;
11604;SDS011;5858;43.076;25.626;2023-09-19T03:02:35;6.07;;;4.10;;
11604;SDS011;5858;43.076;25.626;2023-09-19T03:05:03;9.47;;;4.10;;
11604;SDS011;5858;43.076;25.626;2023-09-19T03:07:31;6.73;;;4.63;;
11604;SDS011;5858;43.076;25.626;2023-09-19T03:10:00;5.50;;;3.90;;
11604;SDS011;5858;43.076;25.626;2023-09-19T03:12:28;9.73;;;4.33;;
11604;SDS011;5858;43.076;25.626;2023-09-19T03:14:55;7.67;;;4.20;;
11604;SDS011;5858;43.076;25.626;2023-09-19T03:17:22;6.33;;;4.10;;
11604;SDS011;5858;43.076;25.626;2023-09-19T03:19:49;11.13;;;4.53;;
11604;SDS011;5858;43.076;25.626;2023-09-19T03:22:16;8.37;;;4.53;;
11604;SDS011;5858;43.076;25.626;2023-09-19T03:24:43;7.60;;;5.43;;
11604;SDS011;5858;43.076;25.626;2023-09-19T03:27:12;7.83;;;4.93;;
11604;SDS011;5858;43.076;25.626;2023-09-19T03:29:41;6.67;;;4.80;;
11604;SDS011;5858;43.076;25.626;2023-09-19T03:32:08;8.37;;;4.57;;
11604;SDS011;5858;43.076;25.626;2023-09-19T03:34:35;6.90;;;4.73;;
11604;SDS011;5858;43.076;25.626;2023-09-19T03:37:03;7.67;;;5.00;;
11604;SDS011;5858;43.076;25.626;2023-09-19T03:39:31;6.77;;;4.53;;
11604;SDS011;5858;43.076;25.626;2023-09-19T03:41:58;4.90;;;4.33;;
11604;SDS011;5858;43.076;25.626;2023-09-19T03:44:27;7.10;;;4.83;;
11604;SDS011;5858;43.076;25.626;2023-09-19T03:46:53;9.20;;;4.50;;
11604;SDS011;5858;43.076;25.626;2023-09-19T03:49:22;5.30;;;4.77;;
11604;SDS011;5858;43.076;25.626;2023-09-19T03:51:48;8.37;;;4.87;;
11604;SDS011;5858;43.076;25.626;2023-09-19T03:54:15;6.97;;;4.60;;
11604;SDS011;5858;43.076;25.626;2023-09-19T03:56:44;8.70;;;4.60;;
11604;SDS011;5858;43.076;25.626;2023-09-19T03:59:11;9.67;;;5.63;;
11604;SDS011;5858;43.076;25.626;2023-09-19T04:01:40;11.53;;;5.90;;
11604;SDS011;5858;43.076;25.626;2023-09-19T04:04:08;8.63;;;5.30;;
11604;SDS011;5858;43.076;25.626;2023-09-19T04:06:35;8.30;;;5.17;;
11604;SDS011;5858;43.076;25.626;2023-09-19T04:09:02;9.60;;;5.00;;
11604;SDS011;5858;43.076;25.626;2023-09-19T04:11:32;8.30;;;5.37;;
11604;SDS011;5858;43.076;25.626;2023-09-19T04:14:02;11.27;;;5.27;;
11604;SDS011;5858;43.076;25.626;2023-09-19T04:16:30;7.33;;;4.67;;
11604;SDS011;5858;43.076;25.626;2023-09-19T04:18:58;11.70;;;5.20;;
11604;SDS011;5858;43.076;25.626;2023-09-19T04:21:25;8.13;;;5.00;;
11604;SDS011;5858;43.076;25.626;2023-09-19T04:23:53;11.83;;;5.77;;
11604;SDS011;5858;43.076;25.626;2023-09-19T04:26:20;10.40;;;5.23;;
11604;SDS011;5858;43.076;25.626;2023-09-19T04:28:47;6.77;;;5.40;;
11604;SDS011;5858;43.076;25.626;2023-09-19T04:31:14;10.33;;;5.17;;
11604;SDS011;5858;43.076;25.626;2023-09-19T04:33:41;10.57;;;5.33;;
11604;SDS011;5858;43.076;25.626;2023-09-19T04:36:10;15.07;;;6.27;;
11604;SDS011;5858;43.076;25.626;2023-09-19T04:38:38;9.93;;;5.80;;
11604;SDS011;5858;43.076;25.626;2023-09-19T04:41:05;7.53;;;5.23;;
11604;SDS011;5858;43.076;25.626;2023-09-19T04:43:31;12.90;;;5.50;;
11604;SDS011;5858;43.076;25.626;2023-09-19T04:45:58;7.17;;;5.13;;
11604;SDS011;5858;43.076;25.626;2023-09-19T04:48:25;9.23;;;5.03;;
11604;SDS011;5858;43.076;25.626;2023-09-19T04:50:54;9.23;;;6.20;;
11604;SDS011;5858;43.076;25.626;2023-09-19T04:53:22;16.20;;;6.40;;
11604;SDS011;5858;43.076;25.626;2023-09-19T04:56:01;16.40;;;6.33;;
11604;SDS011;5858;43.076;25.626;2023-09-19T04:58:51;12.17;;;6.80;;
11604;SDS011;5858;43.076;25.626;2023-09-19T05:01:23;9.93;;;6.40;;
11604;SDS011;5858;43.076;25.626;2023-09-19T05:04:00;8.37;;;6.00;;
11604;SDS011;5858;43.076;25.626;2023-09-19T05:06:42;12.27;;;6.40;;
11604;SDS011;5858;43.076;25.626;2023-09-19T05:09:20;10.27;;;6.20;;
11604;SDS011;5858;43.076;25.626;2023-09-19T05:12:17;12.10;;;6.60;;
11604;SDS011;5858;43.076;25.626;2023-09-19T05:14:45;12.90;;;5.82;;
11604;SDS011;5858;43.076;25.626;2023-09-19T05:17:34;11.13;;;6.05;;
11604;SDS011;5858;43.076;25.626;2023-09-19T05:20:33;11.38;;;5.07;;
11604;SDS011;5858;43.076;25.626;2023-09-19T05:23:04;12.68;;;5.63;;
11604;SDS011;5858;43.076;25.626;2023-09-19T05:25:34;8.40;;;5.53;;
11604;SDS011;5858;43.076;25.626;2023-09-19T05:28:04;10.68;;;5.30;;
11604;SDS011;5858;43.076;25.626;2023-09-19T05:30:32;11.48;;;5.65;;
11604;SDS011;5858;43.076;25.626;2023-09-19T05:33:03;6.20;;;4.57;;
11604;SDS011;5858;43.076;25.626;2023-09-19T05:35:31;14.65;;;5.47;;
11604;SDS011;5858;43.076;25.626;2023-09-19T05:37:58;13.23;;;5.05;;
11604;SDS011;5858;43.076;25.626;2023-09-19T05:40:25;11.63;;;4.50;;
11604;SDS011;5858;43.076;25.626;2023-09-19T05:42:54;7.70;;;4.63;;
11604;SDS011;5858;43.076;25.626;2023-09-19T05:45:20;9.38;;;4.45;;
11604;SDS011;5858;43.076;25.626;2023-09-19T05:47:48;8.65;;;4.45;;
11604;SDS011;5858;43.076;25.626;2023-09-19T05:50:16;13.98;;;4.00;;
11604;SDS011;5858;43.076;25.626;2023-09-19T05:52:51;8.48;;;4.05;;
11604;SDS011;5858;43.076;25.626;2023-09-19T05:55:18;6.95;;;4.40;;
11604;SDS011;5858;43.076;25.626;2023-09-19T05:57:49;5.97;;;4.00;;
11604;SDS011;5858;43.076;25.626;2023-09-19T06:00:18;7.45;;;4.50;;
11604;SDS011;5858;43.076;25.626;2023-09-19T06:02:49;7.47;;;4.40;;
11604;SDS011;5858;43.076;25.626;2023-09-19T06:05:17;6.70;;;4.03;;
11604;SDS011;5858;43.076;25.626;2023-09-19T06:07:44;7.80;;;5.03;;
11604;SDS011;5858;43.076;25.626;2023-09-19T06:10:12;8.27;;;3.78;;
11604;SDS011;5858;43.076;25.626;2023-09-19T06:12:39;4.45;;;3.53;;
11604;SDS011;5858;43.076;25.626;2023-09-19T06:15:08;9.20;;;4.35;;
11604;SDS011;5858;43.076;25.626;2023-09-19T06:17:42;6.80;;;3.75;;
11604;SDS011;5858;43.076;25.626;2023-09-19T06:20:15;7.00;;;3.92;;
11604;SDS011;5858;43.076;25.626;2023-09-19T06:22:43;14.23;;;4.68;;
11604;SDS011;5858;43.076;25.626;2023-09-19T06:25:11;8.82;;;4.63;;
11604;SDS011;5858;43.076;25.626;2023-09-19T06:27:40;7.72;;;3.92;;
11604;SDS011;5858;43.076;25.626;2023-09-19T06:30:08;4.88;;;3.78;;
11604;SDS011;5858;43.076;25.626;2023-09-19T06:32:36;6.25;;;3.50;;
11604;SDS011;5858;43.076;25.626;2023-09-19T06:35:05;4.05;;;3.65;;
11604;SDS011;5858;43.076;25.626;2023-09-19T06:37:34;8.70;;;3.75;;
11604;SDS011;5858;43.076;25.626;2023-09-19T06:40:04;3.80;;;3.25;;
11604;SDS011;5858;43.076;25.626;2023-09-19T06:42:34;4.50;;;3.65;;
11604;SDS011;5858;43.076;25.626;2023-09-19T06:45:02;4.72;;;3.65;;
11604;SDS011;5858;43.076;25.626;2023-09-19T06:47:30;7.97;;;4.35;;
11604;SDS011;5858;43.076;25.626;2023-09-19T06:49:57;6.93;;;5.00;;
11604;SDS011;5858;43.076;25.626;2023-09-19T06:52:26;4.25;;;3.83;;
11604;SDS011;5858;43.076;25.626;2023-09-19T06:54:53;5.93;;;4.22;;
11604;SDS011;5858;43.076;25.626;2023-09-19T06:57:20;16.58;;;5.82;;
11604;SDS011;5858;43.076;25.626;2023-09-19T06:59:47;15.60;;;11.57;;
11604;SDS011;5858;43.076;25.626;2023-09-19T07:02:15;6.28;;;5.60;;
11604;SDS011;5858;43.076;25.626;2023-09-19T07:04:42;4.03;;;3.55;;
11604;SDS011;5858;43.076;25.626;2023-09-19T07:07:09;5.10;;;3.78;;
11604;SDS011;5858;43.076;25.626;2023-09-19T07:09:40;6.20;;;4.07;;
11604;SDS011;5858;43.076;25.626;2023-09-19T07:12:08;3.95;;;3.55;;
11604;SDS011;5858;43.076;25.626;2023-09-19T07:14:35;4.25;;;3.47;;
11604;SDS011;5858;43.076;25.626;2023-09-19T07:17:02;5.85;;;3.75;;
11604;SDS011;5858;43.076;25.626;2023-09-19T07:19:29;5.78;;;3.53;;
11604;SDS011;5858;43.076;25.626;2023-09-19T07:21:56;5.63;;;3.78;;
11604;SDS011;5858;43.076;25.626;2023-09-19T07:24:24;5.80;;;3.42;;
11604;SDS011;5858;43.076;25.626;2023-09-19T07:26:55;3.95;;;3.40;;
11604;SDS011;5858;43.076;25.626;2023-09-19T07:29:22;4.65;;;3.50;;
11604;SDS011;5858;43.076;25.626;2023-09-19T07:31:49;4.63;;;3.05;;
11604;SDS011;5858;43.076;25.626;2023-09-19T07:34:16;4.00;;;3.60;;
11604;SDS011;5858;43.076;25.626;2023-09-19T07:36:43;3.88;;;3.30;;
11604;SDS011;5858;43.076;25.626;2023-09-19T07:39:12;4.32;;;3.42;;
11604;SDS011;5858;43.076;25.626;2023-09-19T07:41:39;3.92;;;2.97;;
11604;SDS011;5858;43.076;25.626;2023-09-19T07:44:08;8.00;;;3.75;;
11604;SDS011;5858;43.076;25.626;2023-09-19T07:46:36;3.88;;;3.50;;
11604;SDS011;5858;43.076;25.626;2023-09-19T07:49:03;5.65;;;4.05;;
11604;SDS011;5858;43.076;25.626;2023-09-19T07:51:31;3.60;;;3.22;;
11604;SDS011;5858;43.076;25.626;2023-09-19T07:53:59;5.35;;;4.78;;
11604;SDS011;5858;43.076;25.626;2023-09-19T07:56:36;3.47;;;3.08;;
11604;SDS011;5858;43.076;25.626;2023-09-19T07:59:03;4.72;;;3.17;;
11604;SDS011;5858;43.076;25.626;2023-09-19T08:01:31;4.57;;;3.95;;
11604;SDS011;5858;43.076;25.626;2023-09-19T08:03:58;6.65;;;3.80;;
11604;SDS011;5858;43.076;25.626;2023-09-19T08:06:25;5.80;;;3.08;;
11604;SDS011;5858;43.076;25.626;2023-09-19T08:08:55;4.78;;;3.33;;
11604;SDS011;5858;43.076;25.626;2023-09-19T08:11:22;3.47;;;3.15;;
11604;SDS011;5858;43.076;25.626;2023-09-19T08:13:49;3.75;;;3.15;;
11604;SDS011;5858;43.076;25.626;2023-09-19T08:16:17;4.00;;;3.17;;
11604;SDS011;5858;43.076;25.626;2023-09-19T08:18:48;2.95;;;2.60;;
11604;SDS011;5858;43.076;25.626;2023-09-19T08:21:20;4.68;;;2.92;;
11604;SDS011;5858;43.076;25.626;2023-09-19T08:23:47;3.03;;;2.63;;
11604;SDS011;5858;43.076;25.626;2023-09-19T08:26:14;3.60;;;3.15;;
11604;SDS011;5858;43.076;25.626;2023-09-19T08:28:41;4.05;;;2.85;;
11604;SDS011;5858;43.076;25.626;2023-09-19T08:31:08;4.35;;;3.30;;
11604;SDS011;5858;43.076;25.626;2023-09-19T08:33:36;4.55;;;2.88;;
11604;SDS011;5858;43.076;25.626;2023-09-19T08:36:07;3.42;;;3.13;;
11604;SDS011;5858;43.076;25.626;2023-09-19T08:38:35;4.28;;;2.88;;
11604;SDS011;5858;43.076;25.626;2023-09-19T08:41:05;3.67;;;2.97;;
11604;SDS011;5858;43.076;25.626;2023-09-19T08:43:32;3.20;;;2.95;;
11604;SDS011;5858;43.076;25.626;2023-09-19T08:46:03;3.30;;;3.00;;
11604;SDS011;5858;43.076;25.626;2023-09-19T08:48:36;7.85;;;6.90;;
11604;SDS011;5858;43.076;25.626;2023-09-19T08:51:18;6.07;;;5.43;;
11604;SDS011;5858;43.076;25.626;2023-09-19T08:53:54;3.85;;;3.33;;
11604;SDS011;5858;43.076;25.626;2023-09-19T08:56:29;3.40;;;3.00;;
11604;SDS011;5858;43.076;25.626;2023-09-19T08:58:59;3.08;;;2.83;;
11604;SDS011;5858;43.076;25.626;2023-09-19T09:01:31;3.47;;;3.08;;
11604;SDS011;5858;43.076;25.626;2023-09-19T09:03:58;7.85;;;6.22;;
11604;SDS011;5858;43.076;25.626;2023-09-19T09:06:27;3.40;;;3.00;;
11604;SDS011;5858;43.076;25.626;2023-09-19T09:08:54;3.72;;;2.75;;
11604;SDS011;5858;43.076;25.626;2023-09-19T09:11:22;2.65;;;2.45;;
11604;SDS011;5858;43.076;25.626;2023-09-19T09:13:50;5.20;;;3.05;;
11604;SDS011;5858;43.076;25.626;2023-09-19T09:16:17;3.20;;;2.40;;
11604;SDS011;5858;43.076;25.626;2023-09-19T09:18:44;3.65;;;2.53;;
11604;SDS011;5858;43.076;25.626;2023-09-19T09:21:11;3.30;;;2.88;;
11604;SDS011;5858;43.076;25.626;2023-09-19T09:23:41;4.57;;;2.72;;
11604;SDS011;5858;43.076;25.626;2023-09-19T09:26:08;3.15;;;2.53;;
11604;SDS011;5858;43.076;25.626;2023-09-19T09:28:34;3.05;;;2.75;;
11604;SDS011;5858;43.076;25.626;2023-09-19T09:31:04;2.95;;;2.63;;
11604;SDS011;5858;43.076;25.626;2023-09-19T09:33:34;4.68;;;2.95;;
11604;SDS011;5858;43.076;25.626;2023-09-19T09:36:02;2.58;;;2.38;;
11604;SDS011;5858;43.076;25.626;2023-09-19T09:38:44;3.92;;;3.00;;
11604;SDS011;5858;43.076;25.626;2023-09-19T09:41:14;3.40;;;3.08;;
11604;SDS011;5858;43.076;25.626;2023-09-19T09:43:53;3.88;;;3.17;;
11604;SDS011;5858;43.076;25.626;2023-09-19T09:46:20;5.35;;;3.13;;
11604;SDS011;5858;43.076;25.626;2023-09-19T09:49:05;3.10;;;2.80;;
11604;SDS011;5858;43.076;25.626;2023-09-19T09:51:50;3.75;;;2.70;;
11604;SDS011;5858;43.076;25.626;2023-09-19T09:54:27;4.20;;;2.90;;
11604;SDS011;5858;43.076;25.626;2023-09-19T09:57:02;3.20;;;2.90;;
11604;SDS011;5858;43.076;25.626;2023-09-19T09:59:50;5.50;;;2.90;;
11604;SDS011;5858;43.076;25.626;2023-09-19T10:02:21;6.35;;;2.60;;
11604;SDS011;5858;43.076;25.626;2023-09-19T10:04:54;3.17;;;2.70;;
11604;SDS011;5858;43.076;25.626;2023-09-19T10:07:34;3.10;;;2.78;;
11604;SDS011;5858;43.076;25.626;2023-09-19T10:10:05;3.35;;;2.85;;
11604;SDS011;5858;43.076;25.626;2023-09-19T10:12:42;3.75;;;2.90;;
11604;SDS011;5858;43.076;25.626;2023-09-19T10:15:13;3.35;;;2.63;;
11604;SDS011;5858;43.076;25.626;2023-09-19T10:17:46;3.13;;;2.67;;
11604;SDS011;5858;43.076;25.626;2023-09-19T10:20:15;3.50;;;2.67;;
11604;SDS011;5858;43.076;25.626;2023-09-19T10:23:04;3.13;;;2.83;;
11604;SDS011;5858;43.076;25.626;2023-09-19T10:25:38;2.92;;;2.63;;
11604;SDS011;5858;43.076;25.626;2023-09-19T10:28:06;3.72;;;2.42;;
11604;SDS011;5858;43.076;25.626;2023-09-19T10:30:39;6.10;;;2.42;;
11604;SDS011;5858;43.076;25.626;2023-09-19T10:33:10;2.97;;;2.28;;
11604;SDS011;5858;43.076;25.626;2023-09-19T10:35:38;7.43;;;5.38;;
11604;SDS011;5858;43.076;25.626;2023-09-19T10:38:07;2.75;;;2.47;;
11604;SDS011;5858;43.076;25.626;2023-09-19T10:40:38;3.72;;;2.50;;
11604;SDS011;5858;43.076;25.626;2023-09-19T10:43:11;2.92;;;2.70;;
11604;SDS011;5858;43.076;25.626;2023-09-19T10:45:40;3.80;;;2.58;;
11604;SDS011;5858;43.076;25.626;2023-09-19T10:48:08;3.58;;;3.10;;
11604;SDS011;5858;43.076;25.626;2023-09-19T10:50:36;3.05;;;2.53;;
11604;SDS011;5858;43.076;25.626;2023-09-19T10:53:11;3.83;;;2.75;;
11604;SDS011;5858;43.076;25.626;2023-09-19T10:55:42;3.10;;;2.42;;
11604;SDS011;5858;43.076;25.626;2023-09-19T10:58:24;5.78;;;2.78;;
11604;SDS011;5858;43.076;25.626;2023-09-19T11:00:55;4.18;;;2.53;;
11604;SDS011;5858;43.076;25.626;2023-09-19T11:03:27;3.90;;;2.50;;
11604;SDS011;5858;43.076;25.626;2023-09-19T11:06:03;2.80;;;2.45;;
11604;SDS011;5858;43.076;25.626;2023-09-19T11:08:56;3.00;;;2.60;;
11604;SDS011;5858;43.076;25.626;2023-09-19T11:11:45;3.78;;;2.33;;
11604;SDS011;5858;43.076;25.626;2023-09-19T11:14:28;2.60;;;2.30;;
11604;SDS011;5858;43.076;25.626;2023-09-19T11:20:17;3.15;;;2.50;;
11604;SDS011;5858;43.076;25.626;2023-09-19T11:23:19;2.75;;;2.45;;
11604;SDS011;5858;43.076;25.626;2023-09-19T11:25:50;2.85;;;2.40;;
11604;SDS011;5858;43.076;25.626;2023-09-19T11:40:36;3.97;;;2.97;;
11604;SDS011;5858;43.076;25.626;2023-09-19T11:46:09;5.20;;;2.60;;
11604;SDS011;5858;43.076;25.626;2023-09-19T11:48:39;3.25;;;2.70;;
11604;SDS011;5858;43.076;25.626;2023-09-19T11:51:13;5.07;;;3.20;;
11604;SDS011;5858;43.076;25.626;2023-09-19T11:53:45;3.08;;;2.47;;
11604;SDS011;5858;43.076;25.626;2023-09-19T11:56:15;2.60;;;2.40;;
11604;SDS011;5858;43.076;25.626;2023-09-19T11:58:43;3.10;;;2.78;;
11604;SDS011;5858;43.076;25.626;2023-09-19T12:01:20;3.08;;;2.75;;
11604;SDS011;5858;43.076;25.626;2023-09-19T12:03:52;2.90;;;2.60;;
11604;SDS011;5858;43.076;25.626;2023-09-19T12:06:20;3.40;;;2.72;;
11604;SDS011;5858;43.076;25.626;2023-09-19T12:08:49;3.10;;;2.80;;
11604;SDS011;5858;43.076;25.626;2023-09-19T12:11:19;4.50;;;2.78;;
11604;SDS011;5858;43.076;25.626;2023-09-19T12:13:48;3.20;;;2.90;;
11604;SDS011;5858;43.076;25.626;2023-09-19T12:16:18;3.20;;;2.45;;
11604;SDS011;5858;43.076;25.626;2023-09-19T12:18:48;3.38;;;2.70;;
11604;SDS011;5858;43.076;25.626;2023-09-19T12:21:28;4.32;;;2.83;;
11604;SDS011;5858;43.076;25.626;2023-09-19T12:23:58;4.43;;;2.75;;
11604;SDS011;5858;43.076;25.626;2023-09-19T12:26:26;3.40;;;2.70;;
11604;SDS011;5858;43.076;25.626;2023-09-19T12:28:54;2.90;;;2.70;;
11604;SDS011;5858;43.076;25.626;2023-09-19T12:31:24;4.15;;;3.00;;
11604;SDS011;5858;43.076;25.626;2023-09-19T12:33:55;3.78;;;2.53;;
11604;SDS011;5858;43.076;25.626;2023-09-19T12:36:23;3.33;;;2.70;;
11604;SDS011;5858;43.076;25.626;2023-09-19T12:38:55;2.90;;;2.60;;
11604;SDS011;5858;43.076;25.626;2023-09-19T12:41:24;2.90;;;2.60;;
11604;SDS011;5858;43.076;25.626;2023-09-19T12:43:52;3.05;;;2.83;;
11604;SDS011;5858;43.076;25.626;2023-09-19T12:46:20;5.50;;;2.65;;
11604;SDS011;5858;43.076;25.626;2023-09-19T12:48:53;3.10;;;2.80;;
11604;SDS011;5858;43.076;25.626;2023-09-19T12:51:43;3.40;;;2.55;;
11604;SDS011;5858;43.076;25.626;2023-09-19T12:54:11;3.55;;;2.85;;
11604;SDS011;5858;43.076;25.626;2023-09-19T12:56:40;3.40;;;2.97;;
11604;SDS011;5858;43.076;25.626;2023-09-19T12:59:09;5.03;;;2.83;;
11604;SDS011;5858;43.076;25.626;2023-09-19T13:01:38;2.90;;;2.60;;
11604;SDS011;5858;43.076;25.626;2023-09-19T13:04:12;5.85;;;3.03;;
11604;SDS011;5858;43.076;25.626;2023-09-19T13:06:43;3.33;;;2.78;;
11604;SDS011;5858;43.076;25.626;2023-09-19T13:09:11;2.90;;;2.70;;
11604;SDS011;5858;43.076;25.626;2023-09-19T13:11:39;3.58;;;3.08;;
11604;SDS011;5858;43.076;25.626;2023-09-19T13:14:16;3.30;;;2.80;;
11604;SDS011;5858;43.076;25.626;2023-09-19T13:16:54;3.03;;;2.60;;
11604;SDS011;5858;43.076;25.626;2023-09-19T13:19:36;3.00;;;2.72;;
11604;SDS011;5858;43.076;25.626;2023-09-19T13:22:05;2.65;;;2.45;;
11604;SDS011;5858;43.076;25.626;2023-09-19T13:24:33;2.80;;;2.50;;
11604;SDS011;5858;43.076;25.626;2023-09-19T13:27:05;3.67;;;2.75;;
11604;SDS011;5858;43.076;25.626;2023-09-19T13:29:32;4.80;;;2.65;;
11604;SDS011;5858;43.076;25.626;2023-09-19T13:31:59;3.30;;;3.00;;
11604;SDS011;5858;43.076;25.626;2023-09-19T13:34:27;2.88;;;2.58;;
11604;SDS011;5858;43.076;25.626;2023-09-19T13:36:56;2.97;;;2.67;;
11604;SDS011;5858;43.076;25.626;2023-09-19T13:39:24;3.67;;;2.97;;
11604;SDS011;5858;43.076;25.626;2023-09-19T13:41:51;4.20;;;3.03;;
11604;SDS011;5858;43.076;25.626;2023-09-19T13:44:17;2.72;;;2.53;;
11604;SDS011;5858;43.076;25.626;2023-09-19T13:46:44;3.50;;;2.40;;
11604;SDS011;5858;43.076;25.626;2023-09-19T13:49:12;5.55;;;2.95;;
11604;SDS011;5858;43.076;25.626;2023-09-19T13:51:39;3.10;;;2.70;;
11604;SDS011;5858;43.076;25.626;2023-09-19T13:54:10;4.47;;;3.05;;
11604;SDS011;5858;43.076;25.626;2023-09-19T13:56:38;3.10;;;2.70;;
11604;SDS011;5858;43.076;25.626;2023-09-19T13:59:04;3.20;;;2.50;;
11604;SDS011;5858;43.076;25.626;2023-09-19T14:01:31;3.35;;;2.97;;
11604;SDS011;5858;43.076;25.626;2023-09-19T14:03:58;3.47;;;2.95;;
11604;SDS011;5858;43.076;25.626;2023-09-19T14:06:25;3.88;;;2.60;;
11604;SDS011;5858;43.076;25.626;2023-09-19T14:08:52;3.28;;;2.70;;
11604;SDS011;5858;43.076;25.626;2023-09-19T14:11:20;4.38;;;2.85;;
11604;SDS011;5858;43.076;25.626;2023-09-19T14:13:47;3.33;;;2.90;;
11604;SDS011;5858;43.076;25.626;2023-09-19T14:16:15;6.47;;;2.78;;
11604;SDS011;5858;43.076;25.626;2023-09-19T14:18:44;5.38;;;3.25;;
11604;SDS011;5858;43.076;25.626;2023-09-19T14:21:12;3.22;;;2.70;;
11604;SDS011;5858;43.076;25.626;2023-09-19T14:23:39;4.00;;;2.97;;
11604;SDS011;5858;43.076;25.626;2023-09-19T14:26:08;4.82;;;2.90;;
11604;SDS011;5858;43.076;25.626;2023-09-19T14:28:37;5.03;;;2.47;;
11604;SDS011;5858;43.076;25.626;2023-09-19T14:31:05;2.90;;;2.60;;
11604;SDS011;5858;43.076;25.626;2023-09-19T14:33:33;3.25;;;2.65;;
11604;SDS011;5858;43.076;25.626;2023-09-19T14:36:02;4.05;;;2.67;;
11604;SDS011;5858;43.076;25.626;2023-09-19T14:38:31;3.35;;;3.05;;
11604;SDS011;5858;43.076;25.626;2023-09-19T14:41:00;3.47;;;3.17;;
11604;SDS011;5858;43.076;25.626;2023-09-19T14:43:27;4.20;;;3.03;;
11604;SDS011;5858;43.076;25.626;2023-09-19T14:45:56;3.00;;;2.80;;
11604;SDS011;5858;43.076;25.626;2023-09-19T14:48:23;3.13;;;2.83;;
11604;SDS011;5858;43.076;25.626;2023-09-19T14:50:51;3.33;;;2.70;;
11604;SDS011;5858;43.076;25.626;2023-09-19T14:53:18;5.22;;;2.50;;
11604;SDS011;5858;43.076;25.626;2023-09-19T14:55:45;3.72;;;2.85;;
11604;SDS011;5858;43.076;25.626;2023-09-19T14:58:16;4.45;;;2.70;;
11604;SDS011;5858;43.076;25.626;2023-09-19T15:00:43;3.92;;;2.40;;
11604;SDS011;5858;43.076;25.626;2023-09-19T15:03:12;3.17;;;2.67;;
11604;SDS011;5858;43.076;25.626;2023-09-19T15:05:40;3.10;;;2.80;;
11604;SDS011;5858;43.076;25.626;2023-09-19T15:08:06;3.63;;;2.97;;
11604;SDS011;5858;43.076;25.626;2023-09-19T15:10:33;4.22;;;3.00;;
11604;SDS011;5858;43.076;25.626;2023-09-19T15:13:00;4.03;;;3.30;;
11604;SDS011;5858;43.076;25.626;2023-09-19T15:15:27;3.35;;;2.78;;
11604;SDS011;5858;43.076;25.626;2023-09-19T15:17:54;5.25;;;3.05;;
11604;SDS011;5858;43.076;25.626;2023-09-19T15:20:22;2.97;;;2.78;;
11604;SDS011;5858;43.076;25.626;2023-09-19T15:22:50;3.28;;;2.97;;